sensor_id;sensor_type;location;lat;lon;timestamp;P1;durP1;ratioP1;P2;durP2;ratioP2
15699;SDS011;7950;42.744;23.174;2023-05-10T00:01:20;5.30;;;4.23;;
15699;SDS011;7950;42.744;23.174;2023-05-10T00:03:49;5.63;;;4.67;;
15699;SDS011;7950;42.744;23.174;2023-05-10T00:06:19;5.30;;;4.80;;
15699;SDS011;7950;42.744;23.174;2023-05-10T00:08:47;6.17;;;5.10;;
15699;SDS011;7950;42.744;23.174;2023-05-10T00:11:16;5.67;;;4.90;;
15699;SDS011;7950;42.744;23.174;2023-05-10T00:16:41;5.77;;;5.17;;
15699;SDS011;7950;42.744;23.174;2023-05-10T00:19:10;5.63;;;5.03;;
15699;SDS011;7950;42.744;23.174;2023-05-10T00:21:40;6.10;;;5.37;;
15699;SDS011;7950;42.744;23.174;2023-05-10T00:24:08;6.77;;;5.90;;
15699;SDS011;7950;42.744;23.174;2023-05-10T00:26:37;6.77;;;6.00;;
15699;SDS011;7950;42.744;23.174;2023-05-10T00:29:05;7.13;;;6.30;;
15699;SDS011;7950;42.744;23.174;2023-05-10T00:31:34;8.27;;;7.23;;
15699;SDS011;7950;42.744;23.174;2023-05-10T00:34:02;7.60;;;6.90;;
15699;SDS011;7950;42.744;23.174;2023-05-10T00:36:31;7.43;;;6.73;;
15699;SDS011;7950;42.744;23.174;2023-05-10T00:39:01;8.00;;;7.23;;
15699;SDS011;7950;42.744;23.174;2023-05-10T00:41:29;8.27;;;7.40;;
15699;SDS011;7950;42.744;23.174;2023-05-10T00:43:59;8.73;;;7.87;;
15699;SDS011;7950;42.744;23.174;2023-05-10T00:46:28;8.33;;;7.53;;
15699;SDS011;7950;42.744;23.174;2023-05-10T00:48:57;8.83;;;7.93;;
15699;SDS011;7950;42.744;23.174;2023-05-10T00:51:26;10.03;;;7.77;;
15699;SDS011;7950;42.744;23.174;2023-05-10T00:53:55;10.23;;;8.23;;
15699;SDS011;7950;42.744;23.174;2023-05-10T00:56:25;8.77;;;7.87;;
15699;SDS011;7950;42.744;23.174;2023-05-10T00:58:56;9.47;;;8.53;;
15699;SDS011;7950;42.744;23.174;2023-05-10T01:01:24;8.90;;;8.00;;
15699;SDS011;7950;42.744;23.174;2023-05-10T01:03:54;8.33;;;7.53;;
15699;SDS011;7950;42.744;23.174;2023-05-10T01:06:23;9.30;;;8.03;;
15699;SDS011;7950;42.744;23.174;2023-05-10T01:08:52;24.87;;;9.00;;
15699;SDS011;7950;42.744;23.174;2023-05-10T01:11:21;9.30;;;8.23;;
15699;SDS011;7950;42.744;23.174;2023-05-10T01:13:52;9.50;;;8.20;;
15699;SDS011;7950;42.744;23.174;2023-05-10T01:16:25;9.30;;;8.40;;
15699;SDS011;7950;42.744;23.174;2023-05-10T01:18:55;11.17;;;9.30;;
15699;SDS011;7950;42.744;23.174;2023-05-10T01:21:27;10.00;;;9.00;;
15699;SDS011;7950;42.744;23.174;2023-05-10T01:24:12;9.47;;;8.37;;
15699;SDS011;7950;42.744;23.174;2023-05-10T01:27:32;11.67;;;9.20;;
15699;SDS011;7950;42.744;23.174;2023-05-10T01:30:39;12.87;;;9.27;;
15699;SDS011;7950;42.744;23.174;2023-05-10T01:33:37;9.60;;;8.60;;
15699;SDS011;7950;42.744;23.174;2023-05-10T01:36:13;10.17;;;9.00;;
15699;SDS011;7950;42.744;23.174;2023-05-10T01:41:54;9.73;;;8.73;;
15699;SDS011;7950;42.744;23.174;2023-05-10T01:44:31;9.63;;;8.63;;
15699;SDS011;7950;42.744;23.174;2023-05-10T01:47:05;10.33;;;9.20;;
15699;SDS011;7950;42.744;23.174;2023-05-10T01:52:55;10.30;;;8.50;;
15699;SDS011;7950;42.744;23.174;2023-05-10T01:55:27;8.43;;;7.57;;
15699;SDS011;7950;42.744;23.174;2023-05-10T01:58:01;8.80;;;7.90;;
15699;SDS011;7950;42.744;23.174;2023-05-10T02:00:34;9.20;;;7.27;;
15699;SDS011;7950;42.744;23.174;2023-05-10T02:03:10;7.93;;;7.20;;
15699;SDS011;7950;42.744;23.174;2023-05-10T02:05:41;8.10;;;7.40;;
15699;SDS011;7950;42.744;23.174;2023-05-10T02:08:21;8.40;;;7.57;;
15699;SDS011;7950;42.744;23.174;2023-05-10T02:10:52;7.57;;;6.87;;
15699;SDS011;7950;42.744;23.174;2023-05-10T02:13:24;8.53;;;6.70;;
15699;SDS011;7950;42.744;23.174;2023-05-10T02:18:51;7.50;;;6.57;;
15699;SDS011;7950;42.744;23.174;2023-05-10T02:21:22;7.83;;;7.03;;
15699;SDS011;7950;42.744;23.174;2023-05-10T02:23:53;7.27;;;6.67;;
15699;SDS011;7950;42.744;23.174;2023-05-10T02:26:23;8.03;;;7.10;;
15699;SDS011;7950;42.744;23.174;2023-05-10T02:29:06;6.67;;;6.03;;
15699;SDS011;7950;42.744;23.174;2023-05-10T02:31:37;8.13;;;6.43;;
15699;SDS011;7950;42.744;23.174;2023-05-10T02:34:09;7.47;;;6.40;;
15699;SDS011;7950;42.744;23.174;2023-05-10T02:36:40;7.43;;;6.73;;
15699;SDS011;7950;42.744;23.174;2023-05-10T02:39:10;8.63;;;6.30;;
15699;SDS011;7950;42.744;23.174;2023-05-10T02:41:41;7.83;;;7.07;;
15699;SDS011;7950;42.744;23.174;2023-05-10T02:44:12;7.37;;;6.57;;
15699;SDS011;7950;42.744;23.174;2023-05-10T02:46:45;7.20;;;6.50;;
15699;SDS011;7950;42.744;23.174;2023-05-10T02:49:14;7.10;;;6.40;;
15699;SDS011;7950;42.744;23.174;2023-05-10T02:51:47;7.37;;;6.70;;
15699;SDS011;7950;42.744;23.174;2023-05-10T02:54:24;7.00;;;6.10;;
15699;SDS011;7950;42.744;23.174;2023-05-10T02:57:00;7.83;;;7.03;;
15699;SDS011;7950;42.744;23.174;2023-05-10T02:59:33;6.20;;;5.60;;
15699;SDS011;7950;42.744;23.174;2023-05-10T03:04:57;7.23;;;6.00;;
15699;SDS011;7950;42.744;23.174;2023-05-10T03:07:27;8.00;;;5.70;;
15699;SDS011;7950;42.744;23.174;2023-05-10T03:09:56;7.83;;;5.57;;
15699;SDS011;7950;42.744;23.174;2023-05-10T03:12:27;6.50;;;5.90;;
15699;SDS011;7950;42.744;23.174;2023-05-10T03:15:11;6.47;;;5.87;;
15699;SDS011;7950;42.744;23.174;2023-05-10T03:17:52;10.80;;;7.00;;
15699;SDS011;7950;42.744;23.174;2023-05-10T03:20:29;6.90;;;5.50;;
15699;SDS011;7950;42.744;23.174;2023-05-10T03:23:11;6.47;;;5.53;;
15699;SDS011;7950;42.744;23.174;2023-05-10T03:25:48;7.00;;;5.77;;
15699;SDS011;7950;42.744;23.174;2023-05-10T03:28:18;6.80;;;5.70;;
15699;SDS011;7950;42.744;23.174;2023-05-10T03:30:48;7.13;;;5.40;;
15699;SDS011;7950;42.744;23.174;2023-05-10T03:33:19;8.67;;;5.67;;
15699;SDS011;7950;42.744;23.174;2023-05-10T03:35:53;9.67;;;6.07;;
15699;SDS011;7950;42.744;23.174;2023-05-10T03:38:23;9.33;;;5.87;;
15699;SDS011;7950;42.744;23.174;2023-05-10T03:40:55;8.20;;;6.00;;
15699;SDS011;7950;42.744;23.174;2023-05-10T03:43:23;6.83;;;6.13;;
15699;SDS011;7950;42.744;23.174;2023-05-10T03:45:51;8.53;;;6.33;;
15699;SDS011;7950;42.744;23.174;2023-05-10T03:48:20;7.97;;;6.23;;
15699;SDS011;7950;42.744;23.174;2023-05-10T03:50:55;8.13;;;6.27;;
15699;SDS011;7950;42.744;23.174;2023-05-10T03:53:25;7.30;;;6.00;;
15699;SDS011;7950;42.744;23.174;2023-05-10T03:55:54;9.23;;;5.73;;
15699;SDS011;7950;42.744;23.174;2023-05-10T03:58:22;6.90;;;6.20;;
15699;SDS011;7950;42.744;23.174;2023-05-10T04:00:56;7.20;;;6.40;;
15699;SDS011;7950;42.744;23.174;2023-05-10T04:03:24;8.43;;;6.33;;
15699;SDS011;7950;42.744;23.174;2023-05-10T04:05:58;12.73;;;7.10;;
15699;SDS011;7950;42.744;23.174;2023-05-10T04:08:29;9.13;;;6.90;;
15699;SDS011;7950;42.744;23.174;2023-05-10T04:11:05;9.17;;;6.60;;
15699;SDS011;7950;42.744;23.174;2023-05-10T04:13:34;9.87;;;7.33;;
15699;SDS011;7950;42.744;23.174;2023-05-10T04:16:04;8.10;;;6.20;;
15699;SDS011;7950;42.744;23.174;2023-05-10T04:18:33;7.70;;;5.87;;
15699;SDS011;7950;42.744;23.174;2023-05-10T04:21:01;7.37;;;6.53;;
15699;SDS011;7950;42.744;23.174;2023-05-10T04:29:12;8.90;;;6.40;;
15699;SDS011;7950;42.744;23.174;2023-05-10T04:31:41;10.07;;;6.37;;
15699;SDS011;7950;42.744;23.174;2023-05-10T04:34:10;7.10;;;5.53;;
15699;SDS011;7950;42.744;23.174;2023-05-10T04:36:38;6.73;;;6.00;;
15699;SDS011;7950;42.744;23.174;2023-05-10T04:39:08;7.83;;;5.63;;
15699;SDS011;7950;42.744;23.174;2023-05-10T04:41:37;8.73;;;6.17;;
15699;SDS011;7950;42.744;23.174;2023-05-10T04:44:06;11.70;;;6.50;;
15699;SDS011;7950;42.744;23.174;2023-05-10T04:46:34;8.60;;;6.47;;
15699;SDS011;7950;42.744;23.174;2023-05-10T04:49:03;7.33;;;5.80;;
15699;SDS011;7950;42.744;23.174;2023-05-10T04:51:31;6.63;;;5.63;;
15699;SDS011;7950;42.744;23.174;2023-05-10T04:54:00;7.37;;;6.53;;
15699;SDS011;7950;42.744;23.174;2023-05-10T04:56:33;7.63;;;6.23;;
15699;SDS011;7950;42.744;23.174;2023-05-10T04:59:02;6.50;;;5.67;;
15699;SDS011;7950;42.744;23.174;2023-05-10T05:01:30;7.10;;;6.00;;
15699;SDS011;7950;42.744;23.174;2023-05-10T05:06:54;9.83;;;6.20;;
15699;SDS011;7950;42.744;23.174;2023-05-10T05:09:23;7.50;;;6.73;;
15699;SDS011;7950;42.744;23.174;2023-05-10T05:11:54;7.73;;;6.23;;
15699;SDS011;7950;42.744;23.174;2023-05-10T05:14:38;7.70;;;6.73;;
15699;SDS011;7950;42.744;23.174;2023-05-10T05:20:00;11.13;;;9.03;;
15699;SDS011;7950;42.744;23.174;2023-05-10T05:22:28;9.97;;;6.83;;
15699;SDS011;7950;42.744;23.174;2023-05-10T05:24:57;8.00;;;7.13;;
15699;SDS011;7950;42.744;23.174;2023-05-10T05:27:27;9.53;;;7.07;;
15699;SDS011;7950;42.744;23.174;2023-05-10T05:29:56;9.50;;;7.10;;
15699;SDS011;7950;42.744;23.174;2023-05-10T05:32:25;9.17;;;7.10;;
15699;SDS011;7950;42.744;23.174;2023-05-10T05:34:53;8.97;;;7.67;;
15699;SDS011;7950;42.744;23.174;2023-05-10T05:40:15;11.17;;;7.70;;
15699;SDS011;7950;42.744;23.174;2023-05-10T05:42:45;8.10;;;7.20;;
15699;SDS011;7950;42.744;23.174;2023-05-10T05:45:14;8.43;;;7.63;;
15699;SDS011;7950;42.744;23.174;2023-05-10T05:47:43;9.07;;;7.67;;
15699;SDS011;7950;42.744;23.174;2023-05-10T05:50:12;8.40;;;7.60;;
15699;SDS011;7950;42.744;23.174;2023-05-10T05:52:40;9.70;;;7.57;;
15699;SDS011;7950;42.744;23.174;2023-05-10T05:55:09;10.63;;;8.37;;
15699;SDS011;7950;42.744;23.174;2023-05-10T05:57:38;12.97;;;9.50;;
15699;SDS011;7950;42.744;23.174;2023-05-10T06:00:08;15.20;;;10.70;;
15699;SDS011;7950;42.744;23.174;2023-05-10T06:02:38;11.70;;;10.50;;
15699;SDS011;7950;42.744;23.174;2023-05-10T06:05:07;9.63;;;8.13;;
15699;SDS011;7950;42.744;23.174;2023-05-10T06:07:36;9.17;;;8.13;;
15699;SDS011;7950;42.744;23.174;2023-05-10T06:10:05;8.20;;;7.40;;
15699;SDS011;7950;42.744;23.174;2023-05-10T06:12:35;9.00;;;7.67;;
15699;SDS011;7950;42.744;23.174;2023-05-10T06:15:04;9.23;;;8.13;;
15699;SDS011;7950;42.744;23.174;2023-05-10T06:17:46;9.33;;;8.30;;
15699;SDS011;7950;42.744;23.174;2023-05-10T06:20:15;10.17;;;8.50;;
15699;SDS011;7950;42.744;23.174;2023-05-10T06:22:44;9.10;;;8.20;;
15699;SDS011;7950;42.744;23.174;2023-05-10T06:25:13;12.83;;;9.73;;
15699;SDS011;7950;42.744;23.174;2023-05-10T06:27:44;8.60;;;7.70;;
15699;SDS011;7950;42.744;23.174;2023-05-10T06:30:18;10.23;;;7.27;;
15699;SDS011;7950;42.744;23.174;2023-05-10T06:32:50;9.30;;;7.67;;
15699;SDS011;7950;42.744;23.174;2023-05-10T06:35:20;12.53;;;9.03;;
15699;SDS011;7950;42.744;23.174;2023-05-10T06:40:42;11.13;;;8.33;;
15699;SDS011;7950;42.744;23.174;2023-05-10T06:43:11;13.73;;;9.37;;
15699;SDS011;7950;42.744;23.174;2023-05-10T06:45:40;9.40;;;7.87;;
15699;SDS011;7950;42.744;23.174;2023-05-10T06:48:10;12.20;;;8.00;;
15699;SDS011;7950;42.744;23.174;2023-05-10T06:50:38;9.17;;;7.70;;
15699;SDS011;7950;42.744;23.174;2023-05-10T06:53:07;9.90;;;7.37;;
15699;SDS011;7950;42.744;23.174;2023-05-10T06:55:35;12.37;;;8.03;;
15699;SDS011;7950;42.744;23.174;2023-05-10T06:58:04;9.90;;;7.00;;
15699;SDS011;7950;42.744;23.174;2023-05-10T07:00:33;10.43;;;7.83;;
15699;SDS011;7950;42.744;23.174;2023-05-10T07:03:01;19.10;;;12.13;;
15699;SDS011;7950;42.744;23.174;2023-05-10T07:05:31;13.20;;;9.10;;
15699;SDS011;7950;42.744;23.174;2023-05-10T07:08:00;9.10;;;7.67;;
15699;SDS011;7950;42.744;23.174;2023-05-10T07:10:29;11.27;;;8.37;;
15699;SDS011;7950;42.744;23.174;2023-05-10T07:12:57;10.63;;;7.37;;
15699;SDS011;7950;42.744;23.174;2023-05-10T07:15:27;9.67;;;7.63;;
15699;SDS011;7950;42.744;23.174;2023-05-10T07:17:55;11.13;;;8.60;;
15699;SDS011;7950;42.744;23.174;2023-05-10T07:20:24;10.30;;;7.30;;
15699;SDS011;7950;42.744;23.174;2023-05-10T07:22:54;9.70;;;7.27;;
15699;SDS011;7950;42.744;23.174;2023-05-10T07:25:23;10.33;;;7.83;;
15699;SDS011;7950;42.744;23.174;2023-05-10T07:27:51;9.00;;;7.23;;
15699;SDS011;7950;42.744;23.174;2023-05-10T07:30:20;9.20;;;8.20;;
15699;SDS011;7950;42.744;23.174;2023-05-10T07:32:49;10.53;;;8.23;;
15699;SDS011;7950;42.744;23.174;2023-05-10T07:35:17;11.27;;;8.70;;
15699;SDS011;7950;42.744;23.174;2023-05-10T07:37:46;10.47;;;8.77;;
15699;SDS011;7950;42.744;23.174;2023-05-10T07:40:16;10.30;;;8.17;;
15699;SDS011;7950;42.744;23.174;2023-05-10T07:42:45;8.97;;;7.90;;
15699;SDS011;7950;42.744;23.174;2023-05-10T07:45:13;9.27;;;7.50;;
15699;SDS011;7950;42.744;23.174;2023-05-10T07:47:42;9.77;;;7.77;;
15699;SDS011;7950;42.744;23.174;2023-05-10T07:50:11;10.80;;;8.37;;
15699;SDS011;7950;42.744;23.174;2023-05-10T07:52:39;11.63;;;8.53;;
15699;SDS011;7950;42.744;23.174;2023-05-10T07:55:09;8.27;;;7.07;;
15699;SDS011;7950;42.744;23.174;2023-05-10T07:57:39;9.80;;;7.73;;
15699;SDS011;7950;42.744;23.174;2023-05-10T08:00:08;10.87;;;8.87;;
15699;SDS011;7950;42.744;23.174;2023-05-10T08:02:40;10.33;;;7.73;;
15699;SDS011;7950;42.744;23.174;2023-05-10T08:05:09;9.23;;;8.23;;
15699;SDS011;7950;42.744;23.174;2023-05-10T08:07:38;10.23;;;8.30;;
15699;SDS011;7950;42.744;23.174;2023-05-10T08:10:07;12.13;;;8.60;;
15699;SDS011;7950;42.744;23.174;2023-05-10T08:12:39;8.43;;;7.57;;
15699;SDS011;7950;42.744;23.174;2023-05-10T08:15:08;10.63;;;9.47;;
15699;SDS011;7950;42.744;23.174;2023-05-10T08:17:38;10.73;;;8.83;;
15699;SDS011;7950;42.744;23.174;2023-05-10T08:20:07;11.60;;;10.20;;
15699;SDS011;7950;42.744;23.174;2023-05-10T08:22:36;10.70;;;8.63;;
15699;SDS011;7950;42.744;23.174;2023-05-10T08:27:39;12.20;;;9.60;;
15699;SDS011;7950;42.744;23.174;2023-05-10T08:30:08;13.10;;;9.50;;
15699;SDS011;7950;42.744;23.174;2023-05-10T08:32:38;20.70;;;12.30;;
15699;SDS011;7950;42.744;23.174;2023-05-10T08:35:07;11.87;;;10.13;;
15699;SDS011;7950;42.744;23.174;2023-05-10T08:37:35;10.43;;;9.33;;
15699;SDS011;7950;42.744;23.174;2023-05-10T08:40:04;11.30;;;9.13;;
15699;SDS011;7950;42.744;23.174;2023-05-10T08:42:38;10.70;;;9.47;;
15699;SDS011;7950;42.744;23.174;2023-05-10T08:45:14;9.70;;;8.70;;
15699;SDS011;7950;42.744;23.174;2023-05-10T08:47:45;10.77;;;8.03;;
15699;SDS011;7950;42.744;23.174;2023-05-10T08:50:14;10.27;;;8.40;;
15699;SDS011;7950;42.744;23.174;2023-05-10T08:52:48;10.23;;;8.53;;
15699;SDS011;7950;42.744;23.174;2023-05-10T08:55:23;11.67;;;8.10;;
15699;SDS011;7950;42.744;23.174;2023-05-10T08:57:54;11.33;;;8.73;;
15699;SDS011;7950;42.744;23.174;2023-05-10T09:00:23;10.40;;;8.47;;
15699;SDS011;7950;42.744;23.174;2023-05-10T09:02:52;9.83;;;7.90;;
15699;SDS011;7950;42.744;23.174;2023-05-10T09:05:22;10.93;;;8.30;;
15699;SDS011;7950;42.744;23.174;2023-05-10T09:07:50;9.00;;;8.10;;
15699;SDS011;7950;42.744;23.174;2023-05-10T09:10:19;8.37;;;7.60;;
15699;SDS011;7950;42.744;23.174;2023-05-10T09:12:48;10.03;;;8.60;;
15699;SDS011;7950;42.744;23.174;2023-05-10T09:15:19;8.93;;;8.10;;
15699;SDS011;7950;42.744;23.174;2023-05-10T09:17:48;10.67;;;8.10;;
15699;SDS011;7950;42.744;23.174;2023-05-10T09:20:18;9.03;;;8.13;;
15699;SDS011;7950;42.744;23.174;2023-05-10T09:22:47;8.80;;;7.80;;
15699;SDS011;7950;42.744;23.174;2023-05-10T09:31:44;8.90;;;7.90;;
15699;SDS011;7950;42.744;23.174;2023-05-10T09:34:17;10.27;;;8.27;;
15699;SDS011;7950;42.744;23.174;2023-05-10T09:36:51;8.93;;;8.03;;
15699;SDS011;7950;42.744;23.174;2023-05-10T09:39:29;9.37;;;8.17;;
15699;SDS011;7950;42.744;23.174;2023-05-10T09:41:59;9.50;;;8.47;;
15699;SDS011;7950;42.744;23.174;2023-05-10T09:44:31;9.90;;;8.83;;
15699;SDS011;7950;42.744;23.174;2023-05-10T09:47:02;10.43;;;9.30;;
15699;SDS011;7950;42.744;23.174;2023-05-10T09:49:31;10.87;;;8.53;;
15699;SDS011;7950;42.744;23.174;2023-05-10T09:52:01;10.03;;;8.73;;
15699;SDS011;7950;42.744;23.174;2023-05-10T09:54:31;8.87;;;7.93;;
15699;SDS011;7950;42.744;23.174;2023-05-10T09:57:01;9.50;;;8.57;;
15699;SDS011;7950;42.744;23.174;2023-05-10T09:59:32;11.33;;;9.33;;
15699;SDS011;7950;42.744;23.174;2023-05-10T10:02:04;11.07;;;9.47;;
15699;SDS011;7950;42.744;23.174;2023-05-10T10:04:32;11.63;;;8.50;;
15699;SDS011;7950;42.744;23.174;2023-05-10T10:07:08;10.70;;;9.60;;
15699;SDS011;7950;42.744;23.174;2023-05-10T10:09:41;10.63;;;9.07;;
15699;SDS011;7950;42.744;23.174;2023-05-10T10:12:10;11.50;;;9.07;;
15699;SDS011;7950;42.744;23.174;2023-05-10T10:14:38;9.53;;;8.63;;
15699;SDS011;7950;42.744;23.174;2023-05-10T10:17:09;9.93;;;8.93;;
15699;SDS011;7950;42.744;23.174;2023-05-10T10:19:37;12.33;;;9.50;;
15699;SDS011;7950;42.744;23.174;2023-05-10T10:22:06;9.90;;;8.90;;
15699;SDS011;7950;42.744;23.174;2023-05-10T10:24:37;10.77;;;9.07;;
15699;SDS011;7950;42.744;23.174;2023-05-10T10:27:09;10.30;;;9.00;;
15699;SDS011;7950;42.744;23.174;2023-05-10T10:29:54;10.00;;;8.20;;
15699;SDS011;7950;42.744;23.174;2023-05-10T10:33:33;9.43;;;8.53;;
15699;SDS011;7950;42.744;23.174;2023-05-10T10:36:15;9.67;;;8.20;;
15699;SDS011;7950;42.744;23.174;2023-05-10T10:39:00;9.03;;;7.87;;
15699;SDS011;7950;42.744;23.174;2023-05-10T10:41:31;9.57;;;8.07;;
15699;SDS011;7950;42.744;23.174;2023-05-10T10:47:03;9.37;;;8.37;;
15699;SDS011;7950;42.744;23.174;2023-05-10T10:49:42;11.77;;;7.80;;
15699;SDS011;7950;42.744;23.174;2023-05-10T10:52:24;8.70;;;7.77;;
15699;SDS011;7950;42.744;23.174;2023-05-10T10:54:58;8.87;;;7.73;;
15699;SDS011;7950;42.744;23.174;2023-05-10T10:57:31;9.43;;;7.60;;
15699;SDS011;7950;42.744;23.174;2023-05-10T11:00:20;10.00;;;7.70;;
15699;SDS011;7950;42.744;23.174;2023-05-10T11:02:58;9.70;;;7.20;;
15699;SDS011;7950;42.744;23.174;2023-05-10T11:05:38;8.53;;;7.70;;
15699;SDS011;7950;42.744;23.174;2023-05-10T11:08:13;8.27;;;7.27;;
15699;SDS011;7950;42.744;23.174;2023-05-10T11:10:52;8.27;;;7.47;;
15699;SDS011;7950;42.744;23.174;2023-05-10T11:13:34;8.93;;;8.03;;
15699;SDS011;7950;42.744;23.174;2023-05-10T11:19:27;9.47;;;7.20;;
15699;SDS011;7950;42.744;23.174;2023-05-10T11:24:56;7.87;;;7.07;;
15699;SDS011;7950;42.744;23.174;2023-05-10T11:27:25;8.10;;;6.33;;
15699;SDS011;7950;42.744;23.174;2023-05-10T11:29:54;7.07;;;6.30;;
15699;SDS011;7950;42.744;23.174;2023-05-10T11:32:22;6.90;;;6.20;;
15699;SDS011;7950;42.744;23.174;2023-05-10T11:34:51;7.50;;;6.00;;
15699;SDS011;7950;42.744;23.174;2023-05-10T11:37:19;7.97;;;6.43;;
15699;SDS011;7950;42.744;23.174;2023-05-10T11:39:49;7.47;;;6.67;;
15699;SDS011;7950;42.744;23.174;2023-05-10T11:42:18;6.97;;;6.37;;
15699;SDS011;7950;42.744;23.174;2023-05-10T11:44:46;7.47;;;6.67;;
15699;SDS011;7950;42.744;23.174;2023-05-10T11:47:15;9.07;;;6.80;;
15699;SDS011;7950;42.744;23.174;2023-05-10T11:49:44;9.50;;;6.40;;
15699;SDS011;7950;42.744;23.174;2023-05-10T11:52:13;7.90;;;6.30;;
15699;SDS011;7950;42.744;23.174;2023-05-10T11:54:44;10.87;;;6.80;;
15699;SDS011;7950;42.744;23.174;2023-05-10T11:57:20;6.97;;;6.00;;
15699;SDS011;7950;42.744;23.174;2023-05-10T11:59:54;7.50;;;6.60;;
15699;SDS011;7950;42.744;23.174;2023-05-10T12:02:24;7.47;;;6.60;;
15699;SDS011;7950;42.744;23.174;2023-05-10T12:05:08;7.87;;;6.60;;
15699;SDS011;7950;42.744;23.174;2023-05-10T12:11:05;8.17;;;7.23;;
15699;SDS011;7950;42.744;23.174;2023-05-10T12:13:37;7.23;;;6.40;;
15699;SDS011;7950;42.744;23.174;2023-05-10T12:16:14;8.30;;;7.00;;
15699;SDS011;7950;42.744;23.174;2023-05-10T12:18:47;7.10;;;6.40;;
15699;SDS011;7950;42.744;23.174;2023-05-10T12:21:18;7.13;;;6.43;;
15699;SDS011;7950;42.744;23.174;2023-05-10T12:23:49;10.30;;;6.80;;
15699;SDS011;7950;42.744;23.174;2023-05-10T12:29:15;8.53;;;7.27;;
15699;SDS011;7950;42.744;23.174;2023-05-10T12:31:52;11.40;;;7.60;;
15699;SDS011;7950;42.744;23.174;2023-05-10T12:37:16;9.33;;;8.00;;
15699;SDS011;7950;42.744;23.174;2023-05-10T12:39:44;9.43;;;8.27;;
15699;SDS011;7950;42.744;23.174;2023-05-10T12:42:14;10.53;;;6.83;;
15699;SDS011;7950;42.744;23.174;2023-05-10T12:44:44;10.03;;;7.67;;
15699;SDS011;7950;42.744;23.174;2023-05-10T12:47:12;8.37;;;7.57;;
15699;SDS011;7950;42.744;23.174;2023-05-10T12:49:41;8.93;;;8.00;;
15699;SDS011;7950;42.744;23.174;2023-05-10T12:52:09;10.10;;;7.90;;
15699;SDS011;7950;42.744;23.174;2023-05-10T12:54:38;8.00;;;7.20;;
15699;SDS011;7950;42.744;23.174;2023-05-10T12:57:06;10.73;;;7.80;;
15699;SDS011;7950;42.744;23.174;2023-05-10T12:59:36;7.73;;;7.03;;
15699;SDS011;7950;42.744;23.174;2023-05-10T13:02:05;8.20;;;7.17;;
15699;SDS011;7950;42.744;23.174;2023-05-10T13:04:34;8.23;;;7.43;;
15699;SDS011;7950;42.744;23.174;2023-05-10T13:07:05;9.77;;;6.73;;
15699;SDS011;7950;42.744;23.174;2023-05-10T13:09:34;8.20;;;7.23;;
15699;SDS011;7950;42.744;23.174;2023-05-10T13:12:03;8.60;;;7.77;;
15699;SDS011;7950;42.744;23.174;2023-05-10T13:14:36;10.70;;;8.10;;
15699;SDS011;7950;42.744;23.174;2023-05-10T13:17:06;9.13;;;7.70;;
15699;SDS011;7950;42.744;23.174;2023-05-10T13:19:35;11.30;;;7.37;;
15699;SDS011;7950;42.744;23.174;2023-05-10T13:22:04;9.27;;;8.07;;
15699;SDS011;7950;42.744;23.174;2023-05-10T13:24:32;9.47;;;7.53;;
15699;SDS011;7950;42.744;23.174;2023-05-10T13:27:01;8.93;;;7.90;;
15699;SDS011;7950;42.744;23.174;2023-05-10T13:29:29;8.50;;;7.33;;
15699;SDS011;7950;42.744;23.174;2023-05-10T13:31:59;8.60;;;7.77;;
15699;SDS011;7950;42.744;23.174;2023-05-10T13:34:28;8.87;;;7.03;;
15699;SDS011;7950;42.744;23.174;2023-05-10T13:36:56;9.73;;;7.37;;
15699;SDS011;7950;42.744;23.174;2023-05-10T13:39:25;8.10;;;7.30;;
15699;SDS011;7950;42.744;23.174;2023-05-10T13:41:56;9.37;;;7.37;;
15699;SDS011;7950;42.744;23.174;2023-05-10T13:44:24;11.00;;;7.57;;
15699;SDS011;7950;42.744;23.174;2023-05-10T13:46:53;7.67;;;6.90;;
15699;SDS011;7950;42.744;23.174;2023-05-10T13:49:23;8.03;;;7.23;;
15699;SDS011;7950;42.744;23.174;2023-05-10T13:51:51;8.87;;;7.17;;
15699;SDS011;7950;42.744;23.174;2023-05-10T13:54:20;7.53;;;6.83;;
15699;SDS011;7950;42.744;23.174;2023-05-10T13:56:49;10.77;;;7.23;;
15699;SDS011;7950;42.744;23.174;2023-05-10T13:59:17;9.20;;;7.43;;
15699;SDS011;7950;42.744;23.174;2023-05-10T14:01:46;8.60;;;7.63;;
15699;SDS011;7950;42.744;23.174;2023-05-10T14:04:14;8.80;;;7.07;;
15699;SDS011;7950;42.744;23.174;2023-05-10T14:06:44;10.93;;;6.83;;
15699;SDS011;7950;42.744;23.174;2023-05-10T14:09:13;7.47;;;6.70;;
15699;SDS011;7950;42.744;23.174;2023-05-10T14:11:41;8.43;;;6.83;;
15699;SDS011;7950;42.744;23.174;2023-05-10T14:14:11;9.50;;;6.70;;
15699;SDS011;7950;42.744;23.174;2023-05-10T14:16:41;8.90;;;7.70;;
15699;SDS011;7950;42.744;23.174;2023-05-10T14:19:11;11.37;;;7.83;;
15699;SDS011;7950;42.744;23.174;2023-05-10T14:21:40;8.63;;;7.63;;
15699;SDS011;7950;42.744;23.174;2023-05-10T14:24:10;10.17;;;8.23;;
15699;SDS011;7950;42.744;23.174;2023-05-10T14:26:39;8.67;;;7.53;;
15699;SDS011;7950;42.744;23.174;2023-05-10T14:29:07;10.97;;;8.30;;
15699;SDS011;7950;42.744;23.174;2023-05-10T14:31:38;9.90;;;7.00;;
15699;SDS011;7950;42.744;23.174;2023-05-10T14:34:07;10.60;;;7.30;;
15699;SDS011;7950;42.744;23.174;2023-05-10T14:36:36;9.67;;;7.30;;
15699;SDS011;7950;42.744;23.174;2023-05-10T14:39:04;13.23;;;7.73;;
15699;SDS011;7950;42.744;23.174;2023-05-10T14:41:34;8.80;;;7.90;;
15699;SDS011;7950;42.744;23.174;2023-05-10T14:46:54;7.90;;;7.10;;
15699;SDS011;7950;42.744;23.174;2023-05-10T14:49:22;10.60;;;7.87;;
15699;SDS011;7950;42.744;23.174;2023-05-10T14:51:52;8.90;;;7.03;;
15699;SDS011;7950;42.744;23.174;2023-05-10T14:54:20;9.33;;;7.90;;
15699;SDS011;7950;42.744;23.174;2023-05-10T14:56:50;8.93;;;8.03;;
15699;SDS011;7950;42.744;23.174;2023-05-10T15:02:13;10.33;;;8.00;;
15699;SDS011;7950;42.744;23.174;2023-05-10T15:04:43;10.53;;;8.27;;
15699;SDS011;7950;42.744;23.174;2023-05-10T15:07:12;8.37;;;7.40;;
15699;SDS011;7950;42.744;23.174;2023-05-10T15:09:42;8.60;;;7.80;;
15699;SDS011;7950;42.744;23.174;2023-05-10T15:12:12;8.43;;;6.97;;
15699;SDS011;7950;42.744;23.174;2023-05-10T15:14:41;11.43;;;8.00;;
15699;SDS011;7950;42.744;23.174;2023-05-10T15:17:09;9.97;;;7.40;;
15699;SDS011;7950;42.744;23.174;2023-05-10T15:19:38;8.60;;;7.40;;
15699;SDS011;7950;42.744;23.174;2023-05-10T15:22:06;7.93;;;7.10;;
15699;SDS011;7950;42.744;23.174;2023-05-10T15:24:35;9.57;;;7.53;;
15699;SDS011;7950;42.744;23.174;2023-05-10T15:27:03;9.83;;;7.93;;
15699;SDS011;7950;42.744;23.174;2023-05-10T15:29:33;12.83;;;8.40;;
15699;SDS011;7950;42.744;23.174;2023-05-10T15:32:02;10.43;;;8.20;;
15699;SDS011;7950;42.744;23.174;2023-05-10T15:34:31;12.27;;;8.33;;
15699;SDS011;7950;42.744;23.174;2023-05-10T15:37:02;9.50;;;8.13;;
15699;SDS011;7950;42.744;23.174;2023-05-10T15:39:30;12.83;;;8.53;;
15699;SDS011;7950;42.744;23.174;2023-05-10T15:41:59;9.93;;;8.27;;
15699;SDS011;7950;42.744;23.174;2023-05-10T15:48:20;9.97;;;7.00;;
15699;SDS011;7950;42.744;23.174;2023-05-10T15:50:49;8.83;;;7.00;;
15699;SDS011;7950;42.744;23.174;2023-05-10T15:53:17;9.47;;;7.47;;
15699;SDS011;7950;42.744;23.174;2023-05-10T15:55:46;9.87;;;7.63;;
15699;SDS011;7950;42.744;23.174;2023-05-10T15:58:14;8.40;;;7.03;;
15699;SDS011;7950;42.744;23.174;2023-05-10T16:00:43;11.93;;;8.27;;
15699;SDS011;7950;42.744;23.174;2023-05-10T16:03:11;7.47;;;6.73;;
15699;SDS011;7950;42.744;23.174;2023-05-10T16:05:41;7.97;;;6.13;;
15699;SDS011;7950;42.744;23.174;2023-05-10T16:08:10;8.10;;;6.37;;
15699;SDS011;7950;42.744;23.174;2023-05-10T16:10:38;9.17;;;7.40;;
15699;SDS011;7950;42.744;23.174;2023-05-10T16:13:07;8.33;;;7.03;;
15699;SDS011;7950;42.744;23.174;2023-05-10T16:15:36;8.63;;;7.20;;